Terminal Aerodrome Forecast
Issued by NWS

Home | Current Version | Previous Version | Text Only | Print | Product List | Glossary On
Versions: 1 2 3 4 5 6 7 8 9 10 11 12 13 14 15 16 17 18 19 20 21 22
000
FTUS45 KPSR 291727
TAFIWA
TAF
KIWA 291727Z 2918/3018 28010KT P6SM FEW100 SCT250
     FM300100 09015G25KT P6SM VCTS FEW080CB SCT100 BKN200
      TEMPO 3002/3004 09025G35KT 1SM TSRA BLDU SCT080CB BKN100
      OVC250
     FM300500 11008KT P6SM VCSH BKN100 BKN200=

USA.gov is the U.S. government's official web portal to all federal, state and local government web resources and services.